sensor_id;sensor_type;location;lat;lon;timestamp;pressure;altitude;pressure_sealevel;temperature;humidity
21111;BME280;10713;51.912;4.494;2023-10-13T00:00:38;101140.66;;;18.23;100.00
21111;BME280;10713;51.912;4.494;2023-10-13T00:03:06;101143.44;;;18.21;100.00
21111;BME280;10713;51.912;4.494;2023-10-13T00:05:32;101143.34;;;18.23;100.00
21111;BME280;10713;51.912;4.494;2023-10-13T00:08:02;101143.13;;;18.26;100.00
21111;BME280;10713;51.912;4.494;2023-10-13T00:10:29;101136.81;;;18.27;100.00
21111;BME280;10713;51.912;4.494;2023-10-13T00:12:54;101136.91;;;18.26;100.00
21111;BME280;10713;51.912;4.494;2023-10-13T00:15:30;101128.16;;;18.23;100.00
21111;BME280;10713;51.912;4.494;2023-10-13T00:18:05;101127.31;;;18.23;100.00
21111;BME280;10713;51.912;4.494;2023-10-13T00:20:46;101133.38;;;18.25;100.00
21111;BME280;10713;51.912;4.494;2023-10-13T00:23:14;101130.72;;;18.25;100.00
21111;BME280;10713;51.912;4.494;2023-10-13T00:25:40;101128.72;;;18.29;100.00
21111;BME280;10713;51.912;4.494;2023-10-13T00:28:14;101128.03;;;18.25;100.00
21111;BME280;10713;51.912;4.494;2023-10-13T00:30:48;101112.84;;;18.26;100.00
21111;BME280;10713;51.912;4.494;2023-10-13T00:33:16;101118.13;;;18.27;100.00
21111;BME280;10713;51.912;4.494;2023-10-13T00:35:45;101112.56;;;18.30;100.00
21111;BME280;10713;51.912;4.494;2023-10-13T00:38:12;101112.97;;;18.24;100.00
21111;BME280;10713;51.912;4.494;2023-10-13T00:40:39;101104.84;;;18.26;100.00
21111;BME280;10713;51.912;4.494;2023-10-13T00:43:05;101105.59;;;18.28;100.00
21111;BME280;10713;51.912;4.494;2023-10-13T00:45:47;101096.44;;;18.32;100.00
21111;BME280;10713;51.912;4.494;2023-10-13T00:48:21;101094.47;;;18.21;100.00
21111;BME280;10713;51.912;4.494;2023-10-13T00:50:50;101092.03;;;18.18;100.00
21111;BME280;10713;51.912;4.494;2023-10-13T00:53:15;101091.06;;;18.19;100.00
21111;BME280;10713;51.912;4.494;2023-10-13T00:55:41;101093.72;;;18.19;100.00
21111;BME280;10713;51.912;4.494;2023-10-13T00:58:07;101084.94;;;18.17;100.00
21111;BME280;10713;51.912;4.494;2023-10-13T01:00:37;101083.25;;;18.16;100.00
21111;BME280;10713;51.912;4.494;2023-10-13T01:03:12;101082.41;;;18.15;100.00
21111;BME280;10713;51.912;4.494;2023-10-13T01:05:38;101077.69;;;18.19;100.00
21111;BME280;10713;51.912;4.494;2023-10-13T01:08:05;101061.66;;;18.19;100.00
21111;BME280;10713;51.912;4.494;2023-10-13T01:10:35;101057.28;;;18.18;100.00
21111;BME280;10713;51.912;4.494;2023-10-13T01:13:02;101058.66;;;18.11;100.00
21111;BME280;10713;51.912;4.494;2023-10-13T01:15:28;101064.41;;;18.05;100.00
21111;BME280;10713;51.912;4.494;2023-10-13T01:18:11;101053.50;;;18.08;100.00
21111;BME280;10713;51.912;4.494;2023-10-13T01:20:41;101056.38;;;18.05;100.00
21111;BME280;10713;51.912;4.494;2023-10-13T01:23:17;101054.69;;;18.04;100.00
21111;BME280;10713;51.912;4.494;2023-10-13T01:25:49;101044.56;;;18.21;100.00
21111;BME280;10713;51.912;4.494;2023-10-13T01:28:16;101038.03;;;18.26;100.00
21111;BME280;10713;51.912;4.494;2023-10-13T01:30:44;101041.69;;;18.24;100.00
21111;BME280;10713;51.912;4.494;2023-10-13T01:33:17;101033.03;;;18.21;100.00
21111;BME280;10713;51.912;4.494;2023-10-13T01:35:51;101032.28;;;18.19;100.00
21111;BME280;10713;51.912;4.494;2023-10-13T01:38:18;101033.25;;;18.18;100.00
21111;BME280;10713;51.912;4.494;2023-10-13T01:40:43;101028.84;;;18.17;100.00
21111;BME280;10713;51.912;4.494;2023-10-13T01:43:08;101027.06;;;18.17;100.00
21111;BME280;10713;51.912;4.494;2023-10-13T01:45:37;101029.81;;;18.16;100.00
21111;BME280;10713;51.912;4.494;2023-10-13T01:48:11;101018.50;;;18.12;100.00
21111;BME280;10713;51.912;4.494;2023-10-13T01:50:37;101017.84;;;18.09;100.00
21111;BME280;10713;51.912;4.494;2023-10-13T01:53:03;101007.38;;;18.06;100.00
21111;BME280;10713;51.912;4.494;2023-10-13T01:55:39;101009.16;;;18.05;100.00
21111;BME280;10713;51.912;4.494;2023-10-13T01:58:11;100996.56;;;18.07;100.00
21111;BME280;10713;51.912;4.494;2023-10-13T02:00:41;100991.22;;;18.07;100.00
21111;BME280;10713;51.912;4.494;2023-10-13T02:03:11;100987.69;;;18.07;100.00
21111;BME280;10713;51.912;4.494;2023-10-13T02:05:48;100974.97;;;17.97;100.00
21111;BME280;10713;51.912;4.494;2023-10-13T02:08:15;100976.91;;;17.95;100.00
21111;BME280;10713;51.912;4.494;2023-10-13T02:10:54;100971.44;;;17.97;100.00
21111;BME280;10713;51.912;4.494;2023-10-13T02:13:21;100958.97;;;17.97;100.00
21111;BME280;10713;51.912;4.494;2023-10-13T02:15:48;100956.28;;;17.97;100.00
21111;BME280;10713;51.912;4.494;2023-10-13T02:18:17;100959.03;;;17.96;100.00
21111;BME280;10713;51.912;4.494;2023-10-13T02:20:47;100957.22;;;17.96;100.00
21111;BME280;10713;51.912;4.494;2023-10-13T02:23:20;100956.28;;;17.97;100.00
21111;BME280;10713;51.912;4.494;2023-10-13T02:25:45;100944.53;;;18.00;100.00
21111;BME280;10713;51.912;4.494;2023-10-13T02:28:18;100940.91;;;18.01;100.00
21111;BME280;10713;51.912;4.494;2023-10-13T02:30:46;100933.94;;;17.98;100.00
21111;BME280;10713;51.912;4.494;2023-10-13T02:33:16;100926.16;;;17.95;100.00
21111;BME280;10713;51.912;4.494;2023-10-13T02:35:48;100908.63;;;17.91;100.00
21111;BME280;10713;51.912;4.494;2023-10-13T02:38:19;100907.78;;;18.04;100.00
21111;BME280;10713;51.912;4.494;2023-10-13T02:40:53;100901.25;;;18.08;100.00
21111;BME280;10713;51.912;4.494;2023-10-13T02:43:20;100894.09;;;18.08;100.00
21111;BME280;10713;51.912;4.494;2023-10-13T02:45:52;100888.22;;;18.03;100.00
21111;BME280;10713;51.912;4.494;2023-10-13T02:48:26;100900.72;;;18.02;100.00
21111;BME280;10713;51.912;4.494;2023-10-13T02:50:59;100896.34;;;18.01;100.00
21111;BME280;10713;51.912;4.494;2023-10-13T02:53:28;100908.84;;;18.01;100.00
21111;BME280;10713;51.912;4.494;2023-10-13T02:55:54;100903.28;;;18.04;100.00
21111;BME280;10713;51.912;4.494;2023-10-13T02:58:32;100901.28;;;17.68;100.00
21111;BME280;10713;51.912;4.494;2023-10-13T03:01:07;100896.16;;;17.65;100.00
21111;BME280;10713;51.912;4.494;2023-10-13T03:03:48;100888.91;;;17.67;100.00
21111;BME280;10713;51.912;4.494;2023-10-13T03:06:16;100870.44;;;17.64;100.00
21111;BME280;10713;51.912;4.494;2023-10-13T03:08:41;100863.28;;;17.64;100.00
21111;BME280;10713;51.912;4.494;2023-10-13T03:11:09;100847.38;;;17.63;100.00
21111;BME280;10713;51.912;4.494;2023-10-13T03:13:35;100839.25;;;17.64;100.00
21111;BME280;10713;51.912;4.494;2023-10-13T03:16:01;100830.63;;;17.61;100.00
21111;BME280;10713;51.912;4.494;2023-10-13T03:18:29;100819.81;;;17.62;100.00
21111;BME280;10713;51.912;4.494;2023-10-13T03:20:59;100825.72;;;17.54;100.00
21111;BME280;10713;51.912;4.494;2023-10-13T03:23:27;100813.28;;;17.53;100.00
21111;BME280;10713;51.912;4.494;2023-10-13T03:25:52;100813.09;;;17.56;100.00
21111;BME280;10713;51.912;4.494;2023-10-13T03:28:21;100801.03;;;17.51;100.00
21111;BME280;10713;51.912;4.494;2023-10-13T03:30:51;100792.91;;;17.52;100.00
21111;BME280;10713;51.912;4.494;2023-10-13T03:33:18;100784.16;;;17.50;100.00
21111;BME280;10713;51.912;4.494;2023-10-13T03:35:53;100788.09;;;17.45;100.00
21111;BME280;10713;51.912;4.494;2023-10-13T03:38:30;100787.16;;;17.46;100.00
21111;BME280;10713;51.912;4.494;2023-10-13T03:40:55;100787.03;;;17.47;100.00
21111;BME280;10713;51.912;4.494;2023-10-13T03:43:41;100758.41;;;17.37;100.00
21111;BME280;10713;51.912;4.494;2023-10-13T03:46:34;100757.16;;;17.29;100.00
21111;BME280;10713;51.912;4.494;2023-10-13T03:49:01;100745.28;;;17.33;100.00
21111;BME280;10713;51.912;4.494;2023-10-13T03:51:29;100757.56;;;17.36;100.00
21111;BME280;10713;51.912;4.494;2023-10-13T03:53:58;100750.31;;;17.38;100.00
21111;BME280;10713;51.912;4.494;2023-10-13T03:56:25;100750.31;;;17.38;100.00
21111;BME280;10713;51.912;4.494;2023-10-13T03:58:52;100739.44;;;17.41;100.00
21111;BME280;10713;51.912;4.494;2023-10-13T04:01:19;100748.63;;;17.37;100.00
21111;BME280;10713;51.912;4.494;2023-10-13T04:03:54;100744.00;;;17.65;100.00
21111;BME280;10713;51.912;4.494;2023-10-13T04:06:28;100736.75;;;17.67;100.00
21111;BME280;10713;51.912;4.494;2023-10-13T04:09:15;100734.63;;;17.46;100.00
21111;BME280;10713;51.912;4.494;2023-10-13T04:12:00;100733.88;;;17.44;100.00
21111;BME280;10713;51.912;4.494;2023-10-13T04:14:31;100730.25;;;17.45;100.00
21111;BME280;10713;51.912;4.494;2023-10-13T04:17:16;100734.44;;;17.49;100.00
21111;BME280;10713;51.912;4.494;2023-10-13T04:19:48;100728.03;;;17.52;100.00
21111;BME280;10713;51.912;4.494;2023-10-13T04:22:33;100720.13;;;17.63;100.00
21111;BME280;10713;51.912;4.494;2023-10-13T04:25:24;100708.03;;;17.70;100.00
21111;BME280;10713;51.912;4.494;2023-10-13T04:28:09;100716.47;;;17.77;100.00
21111;BME280;10713;51.912;4.494;2023-10-13T04:30:37;100715.00;;;17.86;100.00
21111;BME280;10713;51.912;4.494;2023-10-13T04:33:31;100716.38;;;17.91;100.00
21111;BME280;10713;51.912;4.494;2023-10-13T04:36:13;100701.91;;;17.94;100.00
21111;BME280;10713;51.912;4.494;2023-10-13T04:38:45;100704.34;;;17.97;100.00
21111;BME280;10713;51.912;4.494;2023-10-13T04:41:27;100687.34;;;18.11;100.00
21111;BME280;10713;51.912;4.494;2023-10-13T04:43:58;100694.03;;;18.16;100.00
21111;BME280;10713;51.912;4.494;2023-10-13T04:46:31;100691.50;;;18.15;100.00
21111;BME280;10713;51.912;4.494;2023-10-13T04:49:11;100684.00;;;18.20;100.00
21111;BME280;10713;51.912;4.494;2023-10-13T04:51:53;100677.69;;;18.21;100.00
21111;BME280;10713;51.912;4.494;2023-10-13T04:54:28;100684.84;;;18.20;100.00
21111;BME280;10713;51.912;4.494;2023-10-13T04:57:17;100672.22;;;18.22;100.00
21111;BME280;10713;51.912;4.494;2023-10-13T05:00:04;100665.31;;;18.20;100.00
21111;BME280;10713;51.912;4.494;2023-10-13T05:02:39;100659.00;;;18.21;100.00
21111;BME280;10713;51.912;4.494;2023-10-13T05:05:11;100654.81;;;18.17;100.00
21111;BME280;10713;51.912;4.494;2023-10-13T05:07:37;100636.34;;;18.14;100.00
21111;BME280;10713;51.912;4.494;2023-10-13T05:10:21;100629.53;;;18.10;100.00
21111;BME280;10713;51.912;4.494;2023-10-13T05:13:04;100637.44;;;18.11;100.00
21111;BME280;10713;51.912;4.494;2023-10-13T05:15:50;100630.63;;;18.07;100.00
21111;BME280;10713;51.912;4.494;2023-10-13T05:18:34;100633.41;;;18.06;100.00
21111;BME280;10713;51.912;4.494;2023-10-13T05:21:19;100634.50;;;18.03;100.00
21111;BME280;10713;51.912;4.494;2023-10-13T05:24:03;100604.03;;;18.06;100.00
21111;BME280;10713;51.912;4.494;2023-10-13T05:26:47;100615.06;;;18.01;100.00
21111;BME280;10713;51.912;4.494;2023-10-13T05:29:31;100607.38;;;17.96;100.00
21111;BME280;10713;51.912;4.494;2023-10-13T05:32:15;100602.53;;;18.01;100.00
21111;BME280;10713;51.912;4.494;2023-10-13T05:34:59;100598.19;;;18.00;100.00
21111;BME280;10713;51.912;4.494;2023-10-13T05:37:43;100583.09;;;17.99;100.00
21111;BME280;10713;51.912;4.494;2023-10-13T05:40:27;100580.56;;;17.98;100.00
21111;BME280;10713;51.912;4.494;2023-10-13T05:43:11;100596.81;;;17.95;100.00
21111;BME280;10713;51.912;4.494;2023-10-13T05:46:03;100580.34;;;18.01;100.00
21111;BME280;10713;51.912;4.494;2023-10-13T05:48:48;100584.69;;;18.02;100.00
21111;BME280;10713;51.912;4.494;2023-10-13T05:51:23;100581.31;;;18.00;100.00
21111;BME280;10713;51.912;4.494;2023-10-13T05:54:07;100590.69;;;18.06;100.00
21111;BME280;10713;51.912;4.494;2023-10-13T05:56:49;100579.13;;;18.05;100.00
21111;BME280;10713;51.912;4.494;2023-10-13T05:59:35;100577.66;;;18.01;100.00
21111;BME280;10713;51.912;4.494;2023-10-13T06:02:20;100572.59;;;18.09;100.00
21111;BME280;10713;51.912;4.494;2023-10-13T06:05:06;100563.75;;;18.09;100.00
21111;BME280;10713;51.912;4.494;2023-10-13T06:07:54;100565.44;;;18.10;100.00
21111;BME280;10713;51.912;4.494;2023-10-13T06:10:38;100564.34;;;18.12;100.00
21111;BME280;10713;51.912;4.494;2023-10-13T06:13:23;100553.69;;;18.12;100.00
21111;BME280;10713;51.912;4.494;2023-10-13T06:16:08;100555.03;;;18.18;100.00
21111;BME280;10713;51.912;4.494;2023-10-13T06:18:52;100543.38;;;18.19;100.00
21111;BME280;10713;51.912;4.494;2023-10-13T06:21:37;100539.38;;;18.24;100.00
21111;BME280;10713;51.912;4.494;2023-10-13T06:24:21;100536.84;;;18.23;100.00
21111;BME280;10713;51.912;4.494;2023-10-13T06:27:05;100530.75;;;18.21;100.00
21111;BME280;10713;51.912;4.494;2023-10-13T06:29:48;100529.91;;;18.20;100.00
21111;BME280;10713;51.912;4.494;2023-10-13T06:32:14;100526.88;;;18.25;100.00
21111;BME280;10713;51.912;4.494;2023-10-13T06:34:41;100520.19;;;18.31;100.00
21111;BME280;10713;51.912;4.494;2023-10-13T06:37:16;100510.03;;;18.36;100.00
21111;BME280;10713;51.912;4.494;2023-10-13T06:39:59;100506.75;;;18.32;100.00
21111;BME280;10713;51.912;4.494;2023-10-13T06:42:30;100510.75;;;18.38;100.00
21111;BME280;10713;51.912;4.494;2023-10-13T06:45:00;100499.69;;;18.42;100.00
21111;BME280;10713;51.912;4.494;2023-10-13T06:47:34;100511.63;;;18.50;100.00
21111;BME280;10713;51.912;4.494;2023-10-13T06:50:05;100493.75;;;18.50;100.00
21111;BME280;10713;51.912;4.494;2023-10-13T06:52:40;100471.03;;;18.44;100.00
21111;BME280;10713;51.912;4.494;2023-10-13T06:55:07;100486.59;;;18.51;100.00
21111;BME280;10713;51.912;4.494;2023-10-13T06:57:35;100475.91;;;18.51;100.00
21111;BME280;10713;51.912;4.494;2023-10-13T07:00:01;100449.41;;;18.48;100.00
21111;BME280;10713;51.912;4.494;2023-10-13T07:02:33;100452.09;;;18.48;100.00
21111;BME280;10713;51.912;4.494;2023-10-13T07:04:59;100459.50;;;18.55;100.00
21111;BME280;10713;51.912;4.494;2023-10-13T07:07:36;100466.44;;;18.58;100.00
21111;BME280;10713;51.912;4.494;2023-10-13T07:10:02;100476.03;;;18.60;100.00
21111;BME280;10713;51.912;4.494;2023-10-13T07:12:27;100479.44;;;18.62;100.00
21111;BME280;10713;51.912;4.494;2023-10-13T07:14:53;100485.50;;;18.64;100.00
21111;BME280;10713;51.912;4.494;2023-10-13T07:17:28;100482.72;;;18.66;100.00
21111;BME280;10713;51.912;4.494;2023-10-13T07:19:58;100476.16;;;18.70;100.00
21111;BME280;10713;51.912;4.494;2023-10-13T07:22:39;100480.31;;;18.74;100.00
21111;BME280;10713;51.912;4.494;2023-10-13T07:25:05;100466.59;;;18.79;100.00
21111;BME280;10713;51.912;4.494;2023-10-13T07:27:31;100478.88;;;18.93;100.00
21111;BME280;10713;51.912;4.494;2023-10-13T07:30:00;100461.47;;;18.98;100.00
21111;BME280;10713;51.912;4.494;2023-10-13T07:32:37;100458.91;;;18.97;100.00
21111;BME280;10713;51.912;4.494;2023-10-13T07:35:03;100454.63;;;19.05;100.00
21111;BME280;10713;51.912;4.494;2023-10-13T07:37:37;100448.06;;;19.21;100.00
21111;BME280;10713;51.912;4.494;2023-10-13T07:40:07;100435.34;;;19.34;100.00
21111;BME280;10713;51.912;4.494;2023-10-13T07:42:47;100443.19;;;19.58;100.00
21111;BME280;10713;51.912;4.494;2023-10-13T07:45:12;100455.84;;;19.67;100.00
21111;BME280;10713;51.912;4.494;2023-10-13T07:47:38;100463.81;;;19.78;100.00
21111;BME280;10713;51.912;4.494;2023-10-13T07:50:05;100458.53;;;19.88;100.00
21111;BME280;10713;51.912;4.494;2023-10-13T07:52:31;100440.66;;;19.89;100.00
21111;BME280;10713;51.912;4.494;2023-10-13T07:55:06;100434.56;;;19.87;100.00
21111;BME280;10713;51.912;4.494;2023-10-13T07:57:39;100428.50;;;19.85;100.00
21111;BME280;10713;51.912;4.494;2023-10-13T08:00:22;100415.56;;;19.90;100.00
21111;BME280;10713;51.912;4.494;2023-10-13T08:03:03;100423.19;;;19.94;100.00
21111;BME280;10713;51.912;4.494;2023-10-13T08:05:52;100425.16;;;19.92;100.00
21111;BME280;10713;51.912;4.494;2023-10-13T08:08:36;100417.44;;;19.99;100.00
21111;BME280;10713;51.912;4.494;2023-10-13T08:11:08;100426.78;;;20.05;100.00
21111;BME280;10713;51.912;4.494;2023-10-13T08:13:37;100409.72;;;20.06;100.00
21111;BME280;10713;51.912;4.494;2023-10-13T08:16:03;100407.47;;;20.01;100.00
21111;BME280;10713;51.912;4.494;2023-10-13T08:18:33;100406.34;;;20.03;100.00
21111;BME280;10713;51.912;4.494;2023-10-13T08:21:02;100422.00;;;20.08;100.00
21111;BME280;10713;51.912;4.494;2023-10-13T08:23:31;100421.06;;;20.09;100.00
21111;BME280;10713;51.912;4.494;2023-10-13T08:26:23;100406.88;;;19.97;100.00
21111;BME280;10713;51.912;4.494;2023-10-13T08:29:06;100408.63;;;20.08;100.00
21111;BME280;10713;51.912;4.494;2023-10-13T08:31:45;100400.47;;;20.10;100.00
21111;BME280;10713;51.912;4.494;2023-10-13T08:34:31;100387.19;;;20.08;100.00
21111;BME280;10713;51.912;4.494;2023-10-13T08:37:05;100400.66;;;20.18;100.00
21111;BME280;10713;51.912;4.494;2023-10-13T08:39:53;100404.28;;;20.17;100.00
21111;BME280;10713;51.912;4.494;2023-10-13T08:42:41;100398.34;;;20.13;100.00
21111;BME280;10713;51.912;4.494;2023-10-13T08:45:13;100403.44;;;20.16;100.00
21111;BME280;10713;51.912;4.494;2023-10-13T08:47:59;100385.53;;;20.17;100.00
21111;BME280;10713;51.912;4.494;2023-10-13T08:50:42;100383.28;;;20.12;100.00
21111;BME280;10713;51.912;4.494;2023-10-13T08:56:02;100386.53;;;20.16;100.00
21111;BME280;10713;51.912;4.494;2023-10-13T08:58:44;100386.72;;;20.24;100.00
21111;BME280;10713;51.912;4.494;2023-10-13T09:01:25;100384.34;;;20.31;100.00
21111;BME280;10713;51.912;4.494;2023-10-13T09:04:15;100381.56;;;20.42;100.00
21111;BME280;10713;51.912;4.494;2023-10-13T09:06:51;100371.13;;;20.39;100.00
21111;BME280;10713;51.912;4.494;2023-10-13T09:14:53;100350.56;;;20.49;100.00
21111;BME280;10713;51.912;4.494;2023-10-13T09:17:25;100346.53;;;20.55;100.00
21111;BME280;10713;51.912;4.494;2023-10-13T09:20:07;100360.28;;;20.50;100.00
21111;BME280;10713;51.912;4.494;2023-10-13T09:22:54;100332.84;;;20.58;100.00
21111;BME280;10713;51.912;4.494;2023-10-13T09:25:32;100321.13;;;20.59;100.00
21111;BME280;10713;51.912;4.494;2023-10-13T09:28:11;100336.38;;;20.58;100.00
21111;BME280;10713;51.912;4.494;2023-10-13T09:30:48;100325.09;;;20.64;100.00
21111;BME280;10713;51.912;4.494;2023-10-13T09:33:19;100329.88;;;20.61;100.00
21111;BME280;10713;51.912;4.494;2023-10-13T09:35:53;100311.22;;;20.59;100.00
21111;BME280;10713;51.912;4.494;2023-10-13T09:38:19;100308.00;;;20.65;100.00
21111;BME280;10713;51.912;4.494;2023-10-13T09:40:46;100303.63;;;20.64;100.00
21111;BME280;10713;51.912;4.494;2023-10-13T09:43:16;100307.03;;;20.66;100.00
21111;BME280;10713;51.912;4.494;2023-10-13T09:45:43;100313.09;;;20.68;100.00
21111;BME280;10713;51.912;4.494;2023-10-13T09:48:47;100315.19;;;20.65;100.00
21111;BME280;10713;51.912;4.494;2023-10-13T09:51:29;100289.78;;;20.59;100.00
21111;BME280;10713;51.912;4.494;2023-10-13T09:54:03;100305.91;;;20.79;100.00
21111;BME280;10713;51.912;4.494;2023-10-13T09:56:45;100300.81;;;20.85;100.00
21111;BME280;10713;51.912;4.494;2023-10-13T09:59:26;100303.25;;;20.98;100.00
21111;BME280;10713;51.912;4.494;2023-10-13T10:02:00;100291.66;;;21.07;100.00
21111;BME280;10713;51.912;4.494;2023-10-13T10:04:33;100276.97;;;21.21;100.00
21111;BME280;10713;51.912;4.494;2023-10-13T10:07:07;100277.28;;;21.38;100.00
21111;BME280;10713;51.912;4.494;2023-10-13T10:09:34;100274.28;;;21.50;100.00
21111;BME280;10713;51.912;4.494;2023-10-13T10:15:03;100272.69;;;21.57;100.00
21111;BME280;10713;51.912;4.494;2023-10-13T10:17:41;100262.78;;;21.68;100.00
21111;BME280;10713;51.912;4.494;2023-10-13T10:20:08;100265.19;;;21.71;100.00
21111;BME280;10713;51.912;4.494;2023-10-13T10:22:57;100250.50;;;21.65;100.00
21111;BME280;10713;51.912;4.494;2023-10-13T10:25:32;100253.03;;;21.67;100.00
21111;BME280;10713;51.912;4.494;2023-10-13T10:28:07;100251.78;;;21.61;100.00
21111;BME280;10713;51.912;4.494;2023-10-13T10:30:35;100245.00;;;21.67;100.00
21111;BME280;10713;51.912;4.494;2023-10-13T10:33:05;100242.59;;;21.64;100.00
21111;BME280;10713;51.912;4.494;2023-10-13T10:35:39;100235.50;;;21.63;100.00
21111;BME280;10713;51.912;4.494;2023-10-13T10:38:09;100237.78;;;21.67;100.00
21111;BME280;10713;51.912;4.494;2023-10-13T10:40:50;100246.06;;;21.74;100.00
21111;BME280;10713;51.912;4.494;2023-10-13T10:46:29;100236.28;;;21.82;100.00
21111;BME280;10713;51.912;4.494;2023-10-13T10:49:05;100218.63;;;21.80;100.00
21111;BME280;10713;51.912;4.494;2023-10-13T10:51:32;100209.59;;;21.81;100.00
21111;BME280;10713;51.912;4.494;2023-10-13T10:53:59;100220.22;;;21.73;100.00
21111;BME280;10713;51.912;4.494;2023-10-13T10:56:36;100213.13;;;21.72;100.00
21111;BME280;10713;51.912;4.494;2023-10-13T10:59:03;100207.63;;;21.73;100.00
21111;BME280;10713;51.912;4.494;2023-10-13T11:01:31;100178.22;;;21.72;100.00
21111;BME280;10713;51.912;4.494;2023-10-13T11:04:07;100188.09;;;21.81;100.00
21111;BME280;10713;51.912;4.494;2023-10-13T11:06:49;100189.72;;;21.92;100.00
21111;BME280;10713;51.912;4.494;2023-10-13T11:09:27;100193.63;;;22.07;100.00
21111;BME280;10713;51.912;4.494;2023-10-13T11:12:25;100169.78;;;22.22;100.00
21111;BME280;10713;51.912;4.494;2023-10-13T11:15:08;100178.88;;;22.39;100.00
21111;BME280;10713;51.912;4.494;2023-10-13T11:17:40;100176.19;;;22.39;100.00
21111;BME280;10713;51.912;4.494;2023-10-13T11:20:17;100178.56;;;22.42;100.00
21111;BME280;10713;51.912;4.494;2023-10-13T11:22:48;100160.44;;;22.44;100.00
21111;BME280;10713;51.912;4.494;2023-10-13T11:25:30;100174.31;;;22.39;100.00
21111;BME280;10713;51.912;4.494;2023-10-13T11:28:14;100179.88;;;22.38;100.00
21111;BME280;10713;51.912;4.494;2023-10-13T11:30:43;100175.03;;;22.41;100.00
21111;BME280;10713;51.912;4.494;2023-10-13T11:33:14;100181.63;;;22.47;100.00
21111;BME280;10713;51.912;4.494;2023-10-13T11:35:44;100178.13;;;22.46;100.00
21111;BME280;10713;51.912;4.494;2023-10-13T11:38:28;100172.13;;;22.53;100.00
21111;BME280;10713;51.912;4.494;2023-10-13T11:40:56;100188.91;;;22.55;100.00
21111;BME280;10713;51.912;4.494;2023-10-13T11:46:01;100180.50;;;22.49;100.00
21111;BME280;10713;51.912;4.494;2023-10-13T11:48:39;100176.78;;;22.51;100.00
21111;BME280;10713;51.912;4.494;2023-10-13T11:51:08;100179.56;;;22.41;100.00
21111;BME280;10713;51.912;4.494;2023-10-13T11:53:36;100183.94;;;22.42;100.00
21111;BME280;10713;51.912;4.494;2023-10-13T11:56:02;100178.16;;;22.37;100.00
21111;BME280;10713;51.912;4.494;2023-10-13T11:58:40;100178.47;;;22.34;100.00
21111;BME280;10713;51.912;4.494;2023-10-13T12:01:06;100156.50;;;22.38;100.00
21111;BME280;10713;51.912;4.494;2023-10-13T12:03:41;100161.28;;;22.44;100.00
21111;BME280;10713;51.912;4.494;2023-10-13T12:06:25;100175.94;;;22.50;100.00
21111;BME280;10713;51.912;4.494;2023-10-13T12:09:07;100163.78;;;22.46;100.00
21111;BME280;10713;51.912;4.494;2023-10-13T12:11:44;100152.38;;;22.44;100.00
21111;BME280;10713;51.912;4.494;2023-10-13T12:14:13;100147.00;;;22.44;100.00
21111;BME280;10713;51.912;4.494;2023-10-13T12:16:50;100138.63;;;22.29;100.00
21111;BME280;10713;51.912;4.494;2023-10-13T12:19:23;100156.81;;;22.35;100.00
21111;BME280;10713;51.912;4.494;2023-10-13T12:21:54;100161.81;;;22.30;100.00
21111;BME280;10713;51.912;4.494;2023-10-13T12:24:27;100130.59;;;22.19;100.00
21111;BME280;10713;51.912;4.494;2023-10-13T12:27:05;100142.28;;;22.28;100.00
21111;BME280;10713;51.912;4.494;2023-10-13T12:29:59;100145.16;;;22.26;100.00
21111;BME280;10713;51.912;4.494;2023-10-13T12:32:32;100143.59;;;22.24;100.00
21111;BME280;10713;51.912;4.494;2023-10-13T12:34:59;100144.00;;;22.29;100.00
21111;BME280;10713;51.912;4.494;2023-10-13T12:37:29;100139.91;;;22.25;100.00
21111;BME280;10713;51.912;4.494;2023-10-13T12:40:13;100130.59;;;22.19;100.00
21111;BME280;10713;51.912;4.494;2023-10-13T12:42:57;100145.63;;;22.12;100.00
21111;BME280;10713;51.912;4.494;2023-10-13T12:45:45;100158.69;;;22.07;100.00
21111;BME280;10713;51.912;4.494;2023-10-13T12:48:31;100155.28;;;22.05;100.00
21111;BME280;10713;51.912;4.494;2023-10-13T12:51:15;100134.94;;;22.02;100.00
21111;BME280;10713;51.912;4.494;2023-10-13T12:54:00;100133.09;;;22.03;100.00
21111;BME280;10713;51.912;4.494;2023-10-13T12:57:01;100131.16;;;21.95;100.00
21111;BME280;10713;51.912;4.494;2023-10-13T12:59:28;100137.53;;;21.94;100.00
21111;BME280;10713;51.912;4.494;2023-10-13T13:01:53;100132.16;;;21.94;100.00
21111;BME280;10713;51.912;4.494;2023-10-13T13:04:19;100130.78;;;21.90;100.00
21111;BME280;10713;51.912;4.494;2023-10-13T13:06:51;100136.28;;;21.89;100.00
21111;BME280;10713;51.912;4.494;2023-10-13T13:09:18;100132.22;;;21.85;100.00
21111;BME280;10713;51.912;4.494;2023-10-13T13:11:52;100134.47;;;21.89;100.00
21111;BME280;10713;51.912;4.494;2023-10-13T13:14:22;100133.59;;;21.89;100.00
21111;BME280;10713;51.912;4.494;2023-10-13T13:16:54;100130.78;;;21.90;100.00
21111;BME280;10713;51.912;4.494;2023-10-13T13:19:19;100117.16;;;21.92;100.00
21111;BME280;10713;51.912;4.494;2023-10-13T13:21:51;100122.53;;;21.92;100.00
21111;BME280;10713;51.912;4.494;2023-10-13T13:24:16;100129.38;;;21.86;100.00
21111;BME280;10713;51.912;4.494;2023-10-13T13:26:41;100122.47;;;21.84;100.00
21111;BME280;10713;51.912;4.494;2023-10-13T13:29:07;100133.34;;;21.82;100.00
21111;BME280;10713;51.912;4.494;2023-10-13T13:31:36;100133.53;;;21.80;100.00
21111;BME280;10713;51.912;4.494;2023-10-13T13:34:09;100142.97;;;21.85;100.00